sensor_id;sensor_type;location;lat;lon;timestamp;pressure;altitude;pressure_sealevel;temperature;humidity
13952;BME280;39535;52.192;9.886;2024-03-17T00:01:46;101293.88;;;6.23;88.57
13952;BME280;39535;52.192;9.886;2024-03-17T00:04:13;101299.00;;;6.20;88.69
13952;BME280;39535;52.192;9.886;2024-03-17T00:06:39;101310.16;;;6.14;88.01
13952;BME280;39535;52.192;9.886;2024-03-17T00:09:06;101298.31;;;6.33;88.20
13952;BME280;39535;52.192;9.886;2024-03-17T00:11:31;101314.81;;;6.36;86.88
13952;BME280;39535;52.192;9.886;2024-03-17T00:13:58;101328.69;;;6.43;86.59
13952;BME280;39535;52.192;9.886;2024-03-17T00:16:23;101352.97;;;6.50;85.94
13952;BME280;39535;52.192;9.886;2024-03-17T00:18:49;101378.91;;;6.50;85.58
13952;BME280;39535;52.192;9.886;2024-03-17T00:21:15;101389.00;;;6.27;86.64
13952;BME280;39535;52.192;9.886;2024-03-17T00:23:43;101363.00;;;6.21;87.73
13952;BME280;39535;52.192;9.886;2024-03-17T00:26:08;101351.03;;;6.30;87.87
13952;BME280;39535;52.192;9.886;2024-03-17T00:28:34;101345.53;;;6.09;88.12
13952;BME280;39535;52.192;9.886;2024-03-17T00:31:02;101319.66;;;6.13;89.15
13952;BME280;39535;52.192;9.886;2024-03-17T00:33:29;101330.78;;;6.06;88.53
13952;BME280;39535;52.192;9.886;2024-03-17T00:35:54;101325.75;;;6.15;87.76
13952;BME280;39535;52.192;9.886;2024-03-17T00:38:21;101331.03;;;6.23;87.65
13952;BME280;39535;52.192;9.886;2024-03-17T00:40:47;101345.66;;;6.18;87.87
13952;BME280;39535;52.192;9.886;2024-03-17T00:43:14;101338.84;;;6.26;88.19
13952;BME280;39535;52.192;9.886;2024-03-17T00:45:39;101341.50;;;6.31;87.03
13952;BME280;39535;52.192;9.886;2024-03-17T00:48:06;101356.22;;;6.33;86.64
13952;BME280;39535;52.192;9.886;2024-03-17T00:50:32;101361.38;;;6.32;86.04
13952;BME280;39535;52.192;9.886;2024-03-17T00:52:58;101378.34;;;6.08;86.27
13952;BME280;39535;52.192;9.886;2024-03-17T00:55:23;101373.28;;;6.16;87.22
13952;BME280;39535;52.192;9.886;2024-03-17T00:57:51;101364.78;;;6.28;86.67
13952;BME280;39535;52.192;9.886;2024-03-17T01:00:17;101381.13;;;6.22;85.64
13952;BME280;39535;52.192;9.886;2024-03-17T01:02:44;101387.22;;;6.23;86.03
13952;BME280;39535;52.192;9.886;2024-03-17T01:05:09;101396.63;;;6.18;85.44
13952;BME280;39535;52.192;9.886;2024-03-17T01:07:36;101394.00;;;6.16;86.20
13952;BME280;39535;52.192;9.886;2024-03-17T01:10:01;101392.38;;;6.21;85.67
13952;BME280;39535;52.192;9.886;2024-03-17T01:12:27;101395.06;;;6.29;85.38
13952;BME280;39535;52.192;9.886;2024-03-17T01:14:54;101391.63;;;6.31;85.54
13952;BME280;39535;52.192;9.886;2024-03-17T01:17:20;101406.28;;;6.28;85.19
13952;BME280;39535;52.192;9.886;2024-03-17T01:19:46;101406.31;;;6.29;85.57
13952;BME280;39535;52.192;9.886;2024-03-17T01:22:13;101407.16;;;6.30;84.59
13952;BME280;39535;52.192;9.886;2024-03-17T01:24:38;101408.94;;;6.34;85.03
13952;BME280;39535;52.192;9.886;2024-03-17T01:27:07;101403.75;;;6.31;85.28
13952;BME280;39535;52.192;9.886;2024-03-17T01:29:34;101407.16;;;6.27;84.83
13952;BME280;39535;52.192;9.886;2024-03-17T01:32:01;101408.00;;;6.27;84.68
13952;BME280;39535;52.192;9.886;2024-03-17T01:34:27;101413.81;;;6.12;85.23
13952;BME280;39535;52.192;9.886;2024-03-17T01:36:53;101410.34;;;6.10;85.40
13952;BME280;39535;52.192;9.886;2024-03-17T01:39:21;101397.38;;;6.10;85.64
13952;BME280;39535;52.192;9.886;2024-03-17T01:41:48;101384.97;;;5.92;87.20
13952;BME280;39535;52.192;9.886;2024-03-17T01:44:22;101369.63;;;6.02;87.16
13952;BME280;39535;52.192;9.886;2024-03-17T01:46:49;101354.22;;;6.11;86.79
13952;BME280;39535;52.192;9.886;2024-03-17T01:49:16;101361.19;;;6.18;85.61
13952;BME280;39535;52.192;9.886;2024-03-17T01:51:44;101369.00;;;6.20;84.96
13952;BME280;39535;52.192;9.886;2024-03-17T01:54:10;101388.84;;;6.18;84.94
13952;BME280;39535;52.192;9.886;2024-03-17T01:56:36;101394.78;;;6.10;84.69
13952;BME280;39535;52.192;9.886;2024-03-17T01:59:03;101397.03;;;5.90;85.73
13952;BME280;39535;52.192;9.886;2024-03-17T02:01:31;101378.00;;;5.88;85.81
13952;BME280;39535;52.192;9.886;2024-03-17T02:03:56;101368.50;;;5.87;85.73
13952;BME280;39535;52.192;9.886;2024-03-17T02:06:24;101365.78;;;5.80;86.71
13952;BME280;39535;52.192;9.886;2024-03-17T02:08:51;101358.03;;;5.80;87.11
13952;BME280;39535;52.192;9.886;2024-03-17T02:11:25;101348.41;;;5.72;86.76
13952;BME280;39535;52.192;9.886;2024-03-17T02:13:51;101342.78;;;5.45;88.01
13952;BME280;39535;52.192;9.886;2024-03-17T02:16:18;101324.53;;;5.37;88.80
13952;BME280;39535;52.192;9.886;2024-03-17T02:18:44;101295.94;;;5.29;90.03
13952;BME280;39535;52.192;9.886;2024-03-17T02:21:10;101273.53;;;5.31;90.51
13952;BME280;39535;52.192;9.886;2024-03-17T02:23:37;101269.91;;;5.20;90.59
13952;BME280;39535;52.192;9.886;2024-03-17T02:26:03;101259.53;;;5.18;90.51
13952;BME280;39535;52.192;9.886;2024-03-17T02:28:29;101245.00;;;5.28;90.58
13952;BME280;39535;52.192;9.886;2024-03-17T02:30:55;101240.66;;;5.26;90.90
13952;BME280;39535;52.192;9.886;2024-03-17T02:33:21;101238.09;;;5.29;91.12
13952;BME280;39535;52.192;9.886;2024-03-17T02:35:48;101231.22;;;5.31;90.62
13952;BME280;39535;52.192;9.886;2024-03-17T02:38:15;101237.97;;;5.20;89.78
13952;BME280;39535;52.192;9.886;2024-03-17T02:41:03;101227.66;;;5.23;90.74
13952;BME280;39535;52.192;9.886;2024-03-17T02:43:29;101224.16;;;5.17;91.22
13952;BME280;39535;52.192;9.886;2024-03-17T02:45:55;101228.44;;;5.15;91.21
13952;BME280;39535;52.192;9.886;2024-03-17T02:48:22;101220.63;;;5.14;91.92
13952;BME280;39535;52.192;9.886;2024-03-17T02:50:48;101211.06;;;5.08;92.13
13952;BME280;39535;52.192;9.886;2024-03-17T02:53:15;101200.66;;;5.07;92.41
13952;BME280;39535;52.192;9.886;2024-03-17T02:55:41;101190.34;;;5.08;92.16
13952;BME280;39535;52.192;9.886;2024-03-17T02:58:09;101190.28;;;5.05;91.87
13952;BME280;39535;52.192;9.886;2024-03-17T03:00:36;101181.75;;;5.11;92.58
13952;BME280;39535;52.192;9.886;2024-03-17T03:03:03;101190.41;;;5.13;91.19
13952;BME280;39535;52.192;9.886;2024-03-17T03:05:29;101197.28;;;5.11;91.46
13952;BME280;39535;52.192;9.886;2024-03-17T03:07:56;101206.78;;;5.10;91.23
13952;BME280;39535;52.192;9.886;2024-03-17T03:10:23;101202.56;;;5.17;91.48
13952;BME280;39535;52.192;9.886;2024-03-17T03:12:49;101216.38;;;5.17;91.36
13952;BME280;39535;52.192;9.886;2024-03-17T03:15:17;101216.41;;;5.21;90.83
13952;BME280;39535;52.192;9.886;2024-03-17T03:17:44;101208.63;;;5.17;90.57
13952;BME280;39535;52.192;9.886;2024-03-17T03:20:10;101216.19;;;5.07;91.08
13952;BME280;39535;52.192;9.886;2024-03-17T03:22:38;101201.50;;;5.04;91.93
13952;BME280;39535;52.192;9.886;2024-03-17T03:25:05;101203.22;;;5.04;91.96
13952;BME280;39535;52.192;9.886;2024-03-17T03:27:32;101193.94;;;5.18;91.19
13952;BME280;39535;52.192;9.886;2024-03-17T03:29:59;101203.50;;;5.22;91.56
13952;BME280;39535;52.192;9.886;2024-03-17T03:32:27;101205.16;;;5.18;91.13
13952;BME280;39535;52.192;9.886;2024-03-17T03:34:53;101204.38;;;5.23;90.70
13952;BME280;39535;52.192;9.886;2024-03-17T03:37:19;101227.75;;;5.27;90.78
13952;BME280;39535;52.192;9.886;2024-03-17T03:39:46;101234.78;;;5.36;90.19
13952;BME280;39535;52.192;9.886;2024-03-17T03:42:12;101246.97;;;5.45;89.15
13952;BME280;39535;52.192;9.886;2024-03-17T03:44:38;101258.31;;;5.51;89.12
13952;BME280;39535;52.192;9.886;2024-03-17T03:47:05;101271.25;;;5.53;88.62
13952;BME280;39535;52.192;9.886;2024-03-17T03:49:33;101278.25;;;5.58;88.74
13952;BME280;39535;52.192;9.886;2024-03-17T03:51:59;101275.81;;;5.68;89.03
13952;BME280;39535;52.192;9.886;2024-03-17T03:54:25;101282.69;;;5.66;89.33
13952;BME280;39535;52.192;9.886;2024-03-17T03:56:52;101281.88;;;5.70;89.19
13952;BME280;39535;52.192;9.886;2024-03-17T03:59:19;101269.09;;;5.79;89.75
13952;BME280;39535;52.192;9.886;2024-03-17T04:01:46;101266.41;;;5.73;90.10
13952;BME280;39535;52.192;9.886;2024-03-17T04:04:14;101256.03;;;5.74;90.09
13952;BME280;39535;52.192;9.886;2024-03-17T04:06:42;101250.03;;;5.75;90.01
13952;BME280;39535;52.192;9.886;2024-03-17T04:09:08;101254.38;;;5.78;90.60
13952;BME280;39535;52.192;9.886;2024-03-17T04:11:35;101249.25;;;5.81;90.61
13952;BME280;39535;52.192;9.886;2024-03-17T04:14:01;101242.41;;;5.88;89.78
13952;BME280;39535;52.192;9.886;2024-03-17T04:16:29;101245.91;;;5.91;90.01
13952;BME280;39535;52.192;9.886;2024-03-17T04:18:56;101254.53;;;5.90;89.95
13952;BME280;39535;52.192;9.886;2024-03-17T04:21:23;101259.72;;;5.90;89.24
13952;BME280;39535;52.192;9.886;2024-03-17T04:23:50;101266.66;;;5.91;89.41
13952;BME280;39535;52.192;9.886;2024-03-17T04:26:17;101270.88;;;5.85;89.21
13952;BME280;39535;52.192;9.886;2024-03-17T04:28:43;101261.31;;;5.79;89.70
13952;BME280;39535;52.192;9.886;2024-03-17T04:31:10;101259.59;;;5.81;89.79
13952;BME280;39535;52.192;9.886;2024-03-17T04:33:37;101258.81;;;5.87;90.05
13952;BME280;39535;52.192;9.886;2024-03-17T04:36:03;101258.00;;;5.89;90.14
13952;BME280;39535;52.192;9.886;2024-03-17T04:38:29;101270.28;;;6.01;89.34
13952;BME280;39535;52.192;9.886;2024-03-17T04:40:57;101259.13;;;6.07;89.64
13952;BME280;39535;52.192;9.886;2024-03-17T04:43:30;101260.78;;;6.03;89.84
13952;BME280;39535;52.192;9.886;2024-03-17T04:46:01;101265.75;;;5.89;89.71
13952;BME280;39535;52.192;9.886;2024-03-17T04:48:29;101262.25;;;5.86;89.83
13952;BME280;39535;52.192;9.886;2024-03-17T04:50:55;101258.88;;;5.91;89.90
13952;BME280;39535;52.192;9.886;2024-03-17T04:53:21;101258.91;;;5.93;90.09
13952;BME280;39535;52.192;9.886;2024-03-17T04:55:48;101268.38;;;5.91;89.60
13952;BME280;39535;52.192;9.886;2024-03-17T04:58:15;101259.81;;;5.96;89.31
13952;BME280;39535;52.192;9.886;2024-03-17T05:00:42;101267.59;;;5.95;89.16
13952;BME280;39535;52.192;9.886;2024-03-17T05:03:08;101275.44;;;6.00;89.94
13952;BME280;39535;52.192;9.886;2024-03-17T05:05:34;101286.72;;;6.03;88.76
13952;BME280;39535;52.192;9.886;2024-03-17T05:08:01;101282.44;;;6.07;89.44
13952;BME280;39535;52.192;9.886;2024-03-17T05:10:27;101292.72;;;6.02;89.10
13952;BME280;39535;52.192;9.886;2024-03-17T05:12:53;101291.69;;;5.91;89.73
13952;BME280;39535;52.192;9.886;2024-03-17T05:15:22;101282.97;;;5.86;90.03
13952;BME280;39535;52.192;9.886;2024-03-17T05:17:48;101285.53;;;5.84;90.39
13952;BME280;39535;52.192;9.886;2024-03-17T05:20:15;101279.63;;;5.93;89.73
13952;BME280;39535;52.192;9.886;2024-03-17T05:22:41;101292.72;;;6.01;89.74
13952;BME280;39535;52.192;9.886;2024-03-17T05:25:09;101301.34;;;6.00;88.68
13952;BME280;39535;52.192;9.886;2024-03-17T05:27:36;101319.38;;;5.93;88.36
13952;BME280;39535;52.192;9.886;2024-03-17T05:30:02;101335.75;;;5.91;87.68
13952;BME280;39535;52.192;9.886;2024-03-17T05:32:31;101346.03;;;5.86;87.31
13952;BME280;39535;52.192;9.886;2024-03-17T05:34:57;101360.47;;;5.70;87.26
13952;BME280;39535;52.192;9.886;2024-03-17T05:37:23;101370.09;;;5.77;87.15
13952;BME280;39535;52.192;9.886;2024-03-17T05:39:50;101396.88;;;5.28;86.19
13952;BME280;39535;52.192;9.886;2024-03-17T05:42:16;101390.56;;;5.13;87.53
13952;BME280;39535;52.192;9.886;2024-03-17T05:44:42;101375.50;;;4.92;88.44
13952;BME280;39535;52.192;9.886;2024-03-17T05:47:17;101362.22;;;5.21;88.65
13952;BME280;39535;52.192;9.886;2024-03-17T05:49:45;101343.41;;;5.30;89.16
13952;BME280;39535;52.192;9.886;2024-03-17T05:52:11;101329.84;;;5.45;89.91
13952;BME280;39535;52.192;9.886;2024-03-17T05:54:38;101328.97;;;5.44;90.05
13952;BME280;39535;52.192;9.886;2024-03-17T05:57:04;101328.22;;;5.53;89.28
13952;BME280;39535;52.192;9.886;2024-03-17T05:59:32;101335.09;;;5.49;90.18
13952;BME280;39535;52.192;9.886;2024-03-17T06:01:58;101324.06;;;5.61;90.32
13952;BME280;39535;52.192;9.886;2024-03-17T06:04:24;101326.75;;;5.69;90.01
13952;BME280;39535;52.192;9.886;2024-03-17T06:06:52;101330.34;;;5.78;89.69
13952;BME280;39535;52.192;9.886;2024-03-17T06:09:18;101335.59;;;5.82;89.22
13952;BME280;39535;52.192;9.886;2024-03-17T06:11:45;101333.06;;;5.85;89.76
13952;BME280;39535;52.192;9.886;2024-03-17T06:14:12;101323.59;;;5.87;89.79
13952;BME280;39535;52.192;9.886;2024-03-17T06:16:38;101317.50;;;5.83;91.22
13952;BME280;39535;52.192;9.886;2024-03-17T06:19:05;101304.63;;;5.89;91.31
13952;BME280;39535;52.192;9.886;2024-03-17T06:21:32;101293.38;;;5.87;91.11
13952;BME280;39535;52.192;9.886;2024-03-17T06:23:59;101290.94;;;5.98;90.77
13952;BME280;39535;52.192;9.886;2024-03-17T06:26:26;101301.41;;;6.04;89.97
13952;BME280;39535;52.192;9.886;2024-03-17T06:28:52;101304.03;;;6.07;90.66
13952;BME280;39535;52.192;9.886;2024-03-17T06:31:19;101310.16;;;6.14;89.72
13952;BME280;39535;52.192;9.886;2024-03-17T06:33:45;101307.59;;;6.15;90.29
13952;BME280;39535;52.192;9.886;2024-03-17T06:36:12;101312.00;;;6.21;89.75
13952;BME280;39535;52.192;9.886;2024-03-17T06:38:38;101317.28;;;6.29;88.98
13952;BME280;39535;52.192;9.886;2024-03-17T06:41:09;101330.31;;;6.35;89.15
13952;BME280;39535;52.192;9.886;2024-03-17T06:43:35;101330.38;;;6.40;89.99
13952;BME280;39535;52.192;9.886;2024-03-17T06:46:02;101321.81;;;6.45;89.25
13952;BME280;39535;52.192;9.886;2024-03-17T06:48:29;101334.00;;;6.54;88.16
13952;BME280;39535;52.192;9.886;2024-03-17T06:50:55;101365.19;;;6.57;87.36
13952;BME280;39535;52.192;9.886;2024-03-17T06:53:22;101379.91;;;6.60;86.93
13952;BME280;39535;52.192;9.886;2024-03-17T06:55:53;101391.13;;;6.57;87.17
13952;BME280;39535;52.192;9.886;2024-03-17T06:58:22;101395.53;;;6.63;86.56
13952;BME280;39535;52.192;9.886;2024-03-17T07:00:54;101405.09;;;6.67;85.97
13952;BME280;39535;52.192;9.886;2024-03-17T07:03:23;101420.66;;;6.70;84.84
13952;BME280;39535;52.192;9.886;2024-03-17T07:05:53;101425.03;;;6.72;84.93
13952;BME280;39535;52.192;9.886;2024-03-17T07:08:20;101424.25;;;6.78;85.85
13952;BME280;39535;52.192;9.886;2024-03-17T07:11:05;101426.00;;;6.81;85.43
13952;BME280;39535;52.192;9.886;2024-03-17T07:13:34;101422.66;;;6.88;84.76
13952;BME280;39535;52.192;9.886;2024-03-17T07:16:02;101427.88;;;6.91;84.71
13952;BME280;39535;52.192;9.886;2024-03-17T07:18:29;101424.44;;;6.95;86.22
13952;BME280;39535;52.192;9.886;2024-03-17T07:20:59;101403.75;;;7.01;86.48
13952;BME280;39535;52.192;9.886;2024-03-17T07:23:27;101396.88;;;7.05;86.40
13952;BME280;39535;52.192;9.886;2024-03-17T07:25:54;101385.66;;;7.09;87.38
13952;BME280;39535;52.192;9.886;2024-03-17T07:28:21;101365.84;;;7.17;88.17
13952;BME280;39535;52.192;9.886;2024-03-17T07:30:50;101352.97;;;7.26;88.28
13952;BME280;39535;52.192;9.886;2024-03-17T07:33:17;101346.94;;;7.32;88.52
13952;BME280;39535;52.192;9.886;2024-03-17T07:35:49;101353.03;;;7.34;88.09
13952;BME280;39535;52.192;9.886;2024-03-17T07:38:15;101351.38;;;7.44;88.06
13952;BME280;39535;52.192;9.886;2024-03-17T07:40:42;101355.75;;;7.51;87.60
13952;BME280;39535;52.192;9.886;2024-03-17T07:43:08;101374.84;;;7.51;86.43
13952;BME280;39535;52.192;9.886;2024-03-17T07:45:35;101405.16;;;7.57;85.74
13952;BME280;39535;52.192;9.886;2024-03-17T07:48:03;101424.22;;;7.56;85.58
13952;BME280;39535;52.192;9.886;2024-03-17T07:50:29;101424.31;;;7.64;85.48
13952;BME280;39535;52.192;9.886;2024-03-17T07:52:55;101435.53;;;7.63;84.83
13952;BME280;39535;52.192;9.886;2024-03-17T07:55:22;101444.22;;;7.62;84.77
13952;BME280;39535;52.192;9.886;2024-03-17T07:57:48;101434.72;;;7.65;85.35
13952;BME280;39535;52.192;9.886;2024-03-17T08:00:15;101437.31;;;7.67;85.08
13952;BME280;39535;52.192;9.886;2024-03-17T08:02:42;101452.09;;;7.72;84.35
13952;BME280;39535;52.192;9.886;2024-03-17T08:05:10;101461.69;;;7.78;84.09
13952;BME280;39535;52.192;9.886;2024-03-17T08:07:36;101476.41;;;7.81;83.46
13952;BME280;39535;52.192;9.886;2024-03-17T08:10:03;101486.91;;;7.90;84.62
13952;BME280;39535;52.192;9.886;2024-03-17T08:12:30;101471.38;;;7.98;84.35
13952;BME280;39535;52.192;9.886;2024-03-17T08:14:56;101487.91;;;8.03;83.14
13952;BME280;39535;52.192;9.886;2024-03-17T08:17:23;101478.44;;;8.11;83.65
13952;BME280;39535;52.192;9.886;2024-03-17T08:19:49;101509.66;;;8.14;82.22
13952;BME280;39535;52.192;9.886;2024-03-17T08:22:17;101521.81;;;8.18;81.96
13952;BME280;39535;52.192;9.886;2024-03-17T08:24:43;101547.00;;;8.24;80.89
13952;BME280;39535;52.192;9.886;2024-03-17T08:27:10;101517.59;;;8.34;83.12
13952;BME280;39535;52.192;9.886;2024-03-17T08:29:36;101532.38;;;8.38;81.19
13952;BME280;39535;52.192;9.886;2024-03-17T08:32:03;101555.88;;;8.41;80.63
13952;BME280;39535;52.192;9.886;2024-03-17T08:34:29;101567.16;;;8.43;80.00
13952;BME280;39535;52.192;9.886;2024-03-17T08:36:55;101555.94;;;8.49;82.06
13952;BME280;39535;52.192;9.886;2024-03-17T08:39:24;101529.88;;;8.46;82.34
13952;BME280;39535;52.192;9.886;2024-03-17T08:41:50;101524.72;;;8.52;81.58
13952;BME280;39535;52.192;9.886;2024-03-17T08:44:16;101506.53;;;8.58;83.48
13952;BME280;39535;52.192;9.886;2024-03-17T08:46:43;101508.31;;;8.65;81.56
13952;BME280;39535;52.192;9.886;2024-03-17T08:49:09;101521.34;;;8.70;81.59
13952;BME280;39535;52.192;9.886;2024-03-17T08:51:35;101484.13;;;8.88;84.00
13952;BME280;39535;52.192;9.886;2024-03-17T08:54:02;101466.84;;;8.99;83.39
13952;BME280;39535;52.192;9.886;2024-03-17T08:56:30;101483.38;;;9.10;82.51
13952;BME280;39535;52.192;9.886;2024-03-17T08:58:56;101506.84;;;9.17;80.97
13952;BME280;39535;52.192;9.886;2024-03-17T09:01:22;101517.28;;;9.17;80.11
13952;BME280;39535;52.192;9.886;2024-03-17T09:03:49;101527.72;;;9.24;80.73
13952;BME280;39535;52.192;9.886;2024-03-17T09:06:17;101559.88;;;9.28;78.84
13952;BME280;39535;52.192;9.886;2024-03-17T09:08:45;101535.63;;;9.44;82.55
13952;BME280;39535;52.192;9.886;2024-03-17T09:11:13;101510.44;;;9.48;82.89
13952;BME280;39535;52.192;9.886;2024-03-17T09:13:40;101429.66;;;9.77;91.40
13952;BME280;39535;52.192;9.886;2024-03-17T09:16:08;101239.22;;;10.05;97.21
13952;BME280;39535;52.192;9.886;2024-03-17T09:18:36;101220.06;;;10.21;94.25
13952;BME280;39535;52.192;9.886;2024-03-17T09:21:04;101230.44;;;10.33;93.10
13952;BME280;39535;52.192;9.886;2024-03-17T09:23:32;101203.31;;;10.61;92.66
13952;BME280;39535;52.192;9.886;2024-03-17T09:26:01;101248.44;;;10.80;88.14
13952;BME280;39535;52.192;9.886;2024-03-17T09:28:29;101340.72;;;10.82;83.66
13952;BME280;39535;52.192;9.886;2024-03-17T09:30:57;101441.72;;;10.77;79.96
13952;BME280;39535;52.192;9.886;2024-03-17T09:33:25;101519.22;;;10.68;78.47
13952;BME280;39535;52.192;9.886;2024-03-17T09:35:53;101615.84;;;10.61;75.31
13952;BME280;39535;52.192;9.886;2024-03-17T09:38:19;101668.91;;;10.58;74.00
13952;BME280;39535;52.192;9.886;2024-03-17T09:40:46;101671.53;;;10.67;76.18
13952;BME280;39535;52.192;9.886;2024-03-17T09:43:13;101715.94;;;10.69;74.54
13952;BME280;39535;52.192;9.886;2024-03-17T09:45:39;101776.84;;;10.68;72.83
13952;BME280;39535;52.192;9.886;2024-03-17T09:48:13;101840.41;;;10.64;69.93
13952;BME280;39535;52.192;9.886;2024-03-17T09:50:40;101832.59;;;10.67;73.71
13952;BME280;39535;52.192;9.886;2024-03-17T09:53:13;101849.09;;;10.61;70.43
13952;BME280;39535;52.192;9.886;2024-03-17T09:55:41;101907.41;;;10.57;70.95
13952;BME280;39535;52.192;9.886;2024-03-17T09:58:15;101864.75;;;10.58;71.73
13952;BME280;39535;52.192;9.886;2024-03-17T10:00:42;101916.09;;;10.55;67.88
13952;BME280;39535;52.192;9.886;2024-03-17T10:03:10;101875.19;;;10.58;72.82
13952;BME280;39535;52.192;9.886;2024-03-17T10:05:36;101860.41;;;10.62;72.52
13952;BME280;39535;52.192;9.886;2024-03-17T10:08:03;101831.72;;;10.74;70.77
13952;BME280;39535;52.192;9.886;2024-03-17T10:10:29;101908.34;;;10.73;68.11
13952;BME280;39535;52.192;9.886;2024-03-17T10:12:56;101950.09;;;10.71;66.81
13952;BME280;39535;52.192;9.886;2024-03-17T10:15:22;101947.53;;;10.79;67.12
13952;BME280;39535;52.192;9.886;2024-03-17T10:17:49;101954.47;;;10.76;69.76
13952;BME280;39535;52.192;9.886;2024-03-17T10:20:18;101957.03;;;10.63;68.26
13952;BME280;39535;52.192;9.886;2024-03-17T10:22:59;101995.19;;;10.44;67.98
13952;BME280;39535;52.192;9.886;2024-03-17T10:25:26;101963.91;;;10.47;68.88
13952;BME280;39535;52.192;9.886;2024-03-17T10:27:52;101954.34;;;10.49;69.75
13952;BME280;39535;52.192;9.886;2024-03-17T10:30:20;101939.56;;;10.51;70.22
13952;BME280;39535;52.192;9.886;2024-03-17T10:32:52;101959.31;;;10.16;68.46
13952;BME280;39535;52.192;9.886;2024-03-17T10:35:31;101959.47;;;10.36;68.76
13952;BME280;39535;52.192;9.886;2024-03-17T10:37:59;101926.56;;;10.59;73.38
13952;BME280;39535;52.192;9.886;2024-03-17T10:40:26;101869.09;;;10.59;70.11
13952;BME280;39535;52.192;9.886;2024-03-17T10:42:53;101885.69;;;10.73;72.57
13952;BME280;39535;52.192;9.886;2024-03-17T10:45:19;101816.09;;;10.94;74.06
13952;BME280;39535;52.192;9.886;2024-03-17T10:47:48;101830.91;;;11.01;71.36
13952;BME280;39535;52.192;9.886;2024-03-17T10:50:17;101857.97;;;11.14;69.66
13952;BME280;39535;52.192;9.886;2024-03-17T10:52:48;101897.16;;;11.20;67.16
13952;BME280;39535;52.192;9.886;2024-03-17T10:55:23;101955.53;;;11.25;67.27
13952;BME280;39535;52.192;9.886;2024-03-17T10:57:51;101968.63;;;11.35;67.52
13952;BME280;39535;52.192;9.886;2024-03-17T11:00:19;101993.03;;;11.30;66.20
13952;BME280;39535;52.192;9.886;2024-03-17T11:02:47;102032.25;;;11.37;64.09
13952;BME280;39535;52.192;9.886;2024-03-17T11:05:16;102066.22;;;11.29;63.52
13952;BME280;39535;52.192;9.886;2024-03-17T11:07:46;102083.63;;;11.25;62.86
13952;BME280;39535;52.192;9.886;2024-03-17T11:10:20;102105.41;;;11.23;62.51
13952;BME280;39535;52.192;9.886;2024-03-17T11:12:48;102108.88;;;11.22;63.26
13952;BME280;39535;52.192;9.886;2024-03-17T11:15:38;102132.47;;;11.34;62.22
13952;BME280;39535;52.192;9.886;2024-03-17T11:18:28;102140.31;;;11.37;62.57
13952;BME280;39535;52.192;9.886;2024-03-17T11:20:59;102127.34;;;11.59;63.58
13952;BME280;39535;52.192;9.886;2024-03-17T11:23:29;102124.81;;;11.74;61.89
13952;BME280;39535;52.192;9.886;2024-03-17T11:25:56;102126.59;;;11.89;62.58
13952;BME280;39535;52.192;9.886;2024-03-17T11:28:47;102122.31;;;12.09;62.86
13952;BME280;39535;52.192;9.886;2024-03-17T11:31:33;102152.88;;;12.26;60.55
13952;BME280;39535;52.192;9.886;2024-03-17T11:34:00;102166.88;;;12.48;60.40
13952;BME280;39535;52.192;9.886;2024-03-17T11:36:38;102154.66;;;12.73;61.87
13952;BME280;39535;52.192;9.886;2024-03-17T11:39:07;102133.66;;;13.04;60.15
13952;BME280;39535;52.192;9.886;2024-03-17T11:41:36;102159.63;;;13.88;55.97
13952;BME280;39535;52.192;9.886;2024-03-17T11:44:13;102248.22;;;15.05;53.11
13952;BME280;39535;52.192;9.886;2024-03-17T11:46:40;102325.44;;;15.97;51.12
13952;BME280;39535;52.192;9.886;2024-03-17T11:49:05;102402.91;;;16.58;49.10
13952;BME280;39535;52.192;9.886;2024-03-17T11:51:34;102494.81;;;16.91;48.20
13952;BME280;39535;52.192;9.886;2024-03-17T11:54:00;102537.81;;;17.00;47.70
13952;BME280;39535;52.192;9.886;2024-03-17T11:56:28;102575.81;;;16.84;47.35
13952;BME280;39535;52.192;9.886;2024-03-17T11:59:04;102604.75;;;16.92;46.86
13952;BME280;39535;52.192;9.886;2024-03-17T12:01:34;102628.22;;;17.18;46.07
13952;BME280;39535;52.192;9.886;2024-03-17T12:04:00;102645.59;;;17.34;46.80
13952;BME280;39535;52.192;9.886;2024-03-17T12:06:30;102644.06;;;17.89;45.95
13952;BME280;39535;52.192;9.886;2024-03-17T12:09:07;102646.78;;;18.43;44.61
13952;BME280;39535;52.192;9.886;2024-03-17T12:11:36;102713.75;;;18.44;42.12
13952;BME280;39535;52.192;9.886;2024-03-17T12:14:13;102726.38;;;18.84;43.90
13952;BME280;39535;52.192;9.886;2024-03-17T12:16:46;102735.84;;;18.99;42.96
13952;BME280;39535;52.192;9.886;2024-03-17T12:19:13;102741.66;;;19.18;42.31
13952;BME280;39535;52.192;9.886;2024-03-17T12:21:42;102766.44;;;19.14;42.21
13952;BME280;39535;52.192;9.886;2024-03-17T12:24:14;102763.03;;;19.07;43.46
13952;BME280;39535;52.192;9.886;2024-03-17T12:26:44;102753.78;;;19.31;42.18
13952;BME280;39535;52.192;9.886;2024-03-17T12:29:23;102754.16;;;19.58;41.58
13952;BME280;39535;52.192;9.886;2024-03-17T12:31:50;102759.31;;;19.64;41.47
13952;BME280;39535;52.192;9.886;2024-03-17T12:34:16;102762.09;;;19.58;41.66
13952;BME280;39535;52.192;9.886;2024-03-17T12:36:43;102764.03;;;19.50;41.25
13952;BME280;39535;52.192;9.886;2024-03-17T12:39:10;102765.22;;;19.33;41.63
13952;BME280;39535;52.192;9.886;2024-03-17T12:41:37;102756.06;;;19.51;41.49
13952;BME280;39535;52.192;9.886;2024-03-17T12:44:04;102761.53;;;19.40;41.64
13952;BME280;39535;52.192;9.886;2024-03-17T12:46:30;102744.81;;;19.38;41.15
13952;BME280;39535;52.192;9.886;2024-03-17T12:48:58;102734.75;;;19.56;41.74
13952;BME280;39535;52.192;9.886;2024-03-17T12:51:25;102726.50;;;19.74;40.00
13952;BME280;39535;52.192;9.886;2024-03-17T12:53:50;102734.16;;;19.88;40.22
13952;BME280;39535;52.192;9.886;2024-03-17T12:56:22;102725.97;;;19.97;40.91
13952;BME280;39535;52.192;9.886;2024-03-17T12:59:09;102733.84;;;20.02;40.02
13952;BME280;39535;52.192;9.886;2024-03-17T13:01:53;102736.28;;;20.11;39.79